Colorado Springs Aviation Decision Support Information(Rapid Prototype)

Last Page Refresh(page does not auto refresh):
000
FTUS45 KPUB 301333 AAB
TAFCOS
TAF AMD
KCOS 301333Z 3014/3112 03006KT P6SM VCSH SCT015 BKN018
      TEMPO 3014/3017 2SM -RA BR BKN012
     FM301700 06007KT P6SM VCSH SCT020 BKN040
     FM302000 12012KT P6SM -TSRA BKN025CB BKN050
     FM302300 14008KT P6SM SCT015 BKN025
     FM310600 VRB06KT 3SM BR BKN015=

Please provide any comments or suggestion to the web master email addresse below.


USA.gov is the U.S. government's official web portal to all federal, state and local government web resources and services.